Аэропорт: Кневичи. Владивосток

ICAO: UHWW

METAR:
2018/05/20 19:30
UHWW 201930Z 02004MPS 9999 NSC 03/03 Q1020 R25L/0///70 NOSIG RMK QFE764
METAR:
2018/05/20 18:22
TAF UHWW 201700Z 2018/2118 20003MPS 3100 BR BKN011 
      BECMG 2019/2020 0300 FG VV002 
      BECMG 2021/2023 3100 BR SCT011 
      BECMG 2101/2102 9999 NSW SCT030 
      TEMPO 2103/2109 5000 -SHRA SCT025CB